sensor_id;sensor_type;location;lat;lon;timestamp;temperature;humidity
12655;DHT22;6392;44.644;11.448;2024-01-15T00:00:18;2.90;99.90
12655;DHT22;6392;44.644;11.448;2024-01-15T00:02:46;2.90;99.90
12655;DHT22;6392;44.644;11.448;2024-01-15T00:05:15;2.80;99.90
12655;DHT22;6392;44.644;11.448;2024-01-15T00:07:42;2.80;99.90
12655;DHT22;6392;44.644;11.448;2024-01-15T00:10:09;2.80;99.90
12655;DHT22;6392;44.644;11.448;2024-01-15T00:12:36;2.80;99.90
12655;DHT22;6392;44.644;11.448;2024-01-15T00:15:04;2.80;99.90
12655;DHT22;6392;44.644;11.448;2024-01-15T00:17:31;2.80;99.90
12655;DHT22;6392;44.644;11.448;2024-01-15T00:19:58;2.80;99.90
12655;DHT22;6392;44.644;11.448;2024-01-15T00:22:27;2.80;99.90
12655;DHT22;6392;44.644;11.448;2024-01-15T00:24:54;2.80;99.90
12655;DHT22;6392;44.644;11.448;2024-01-15T00:27:21;2.80;99.90
12655;DHT22;6392;44.644;11.448;2024-01-15T00:29:49;2.80;99.90
12655;DHT22;6392;44.644;11.448;2024-01-15T00:32:17;2.90;99.90
12655;DHT22;6392;44.644;11.448;2024-01-15T00:34:45;2.90;99.90
12655;DHT22;6392;44.644;11.448;2024-01-15T00:37:12;2.90;99.90
12655;DHT22;6392;44.644;11.448;2024-01-15T00:39:41;2.90;99.90
12655;DHT22;6392;44.644;11.448;2024-01-15T00:42:08;2.90;99.90
12655;DHT22;6392;44.644;11.448;2024-01-15T00:44:35;2.80;99.90
12655;DHT22;6392;44.644;11.448;2024-01-15T00:47:02;2.80;99.90
12655;DHT22;6392;44.644;11.448;2024-01-15T00:49:29;2.80;99.90
12655;DHT22;6392;44.644;11.448;2024-01-15T00:51:56;2.80;99.90
12655;DHT22;6392;44.644;11.448;2024-01-15T00:54:24;2.70;99.90
12655;DHT22;6392;44.644;11.448;2024-01-15T00:56:52;2.70;99.90
12655;DHT22;6392;44.644;11.448;2024-01-15T00:59:20;2.70;99.90
12655;DHT22;6392;44.644;11.448;2024-01-15T01:01:47;2.70;99.90
12655;DHT22;6392;44.644;11.448;2024-01-15T01:04:14;2.70;99.90
12655;DHT22;6392;44.644;11.448;2024-01-15T01:06:41;2.70;99.90
12655;DHT22;6392;44.644;11.448;2024-01-15T01:09:09;2.70;99.90
12655;DHT22;6392;44.644;11.448;2024-01-15T01:11:36;2.70;99.90
12655;DHT22;6392;44.644;11.448;2024-01-15T01:14:04;2.70;99.90
12655;DHT22;6392;44.644;11.448;2024-01-15T01:16:32;2.70;99.90
12655;DHT22;6392;44.644;11.448;2024-01-15T01:19:04;2.80;99.90
12655;DHT22;6392;44.644;11.448;2024-01-15T01:21:31;2.80;99.90
12655;DHT22;6392;44.644;11.448;2024-01-15T01:23:59;2.80;99.90
12655;DHT22;6392;44.644;11.448;2024-01-15T01:26:26;2.80;99.90
12655;DHT22;6392;44.644;11.448;2024-01-15T01:28:53;2.80;99.90
12655;DHT22;6392;44.644;11.448;2024-01-15T01:31:21;2.80;99.90
12655;DHT22;6392;44.644;11.448;2024-01-15T01:33:48;2.80;99.90
12655;DHT22;6392;44.644;11.448;2024-01-15T01:36:15;2.80;99.90
12655;DHT22;6392;44.644;11.448;2024-01-15T01:38:42;2.80;99.90
12655;DHT22;6392;44.644;11.448;2024-01-15T01:41:09;2.70;99.90
12655;DHT22;6392;44.644;11.448;2024-01-15T01:43:37;2.70;99.90
12655;DHT22;6392;44.644;11.448;2024-01-15T01:46:05;2.70;99.90
12655;DHT22;6392;44.644;11.448;2024-01-15T01:48:34;2.70;99.90
12655;DHT22;6392;44.644;11.448;2024-01-15T01:51:03;2.70;99.90
12655;DHT22;6392;44.644;11.448;2024-01-15T01:53:32;2.60;99.90
12655;DHT22;6392;44.644;11.448;2024-01-15T01:55:59;2.60;99.90
12655;DHT22;6392;44.644;11.448;2024-01-15T01:58:27;2.60;99.90
12655;DHT22;6392;44.644;11.448;2024-01-15T02:00:55;2.60;99.90
12655;DHT22;6392;44.644;11.448;2024-01-15T02:03:22;2.60;99.90
12655;DHT22;6392;44.644;11.448;2024-01-15T02:05:51;2.60;99.90
12655;DHT22;6392;44.644;11.448;2024-01-15T02:08:19;2.60;99.90
12655;DHT22;6392;44.644;11.448;2024-01-15T02:10:46;2.60;99.90
12655;DHT22;6392;44.644;11.448;2024-01-15T02:13:14;2.60;99.90
12655;DHT22;6392;44.644;11.448;2024-01-15T02:15:41;2.60;99.90
12655;DHT22;6392;44.644;11.448;2024-01-15T02:18:08;2.70;99.90
12655;DHT22;6392;44.644;11.448;2024-01-15T02:20:35;2.70;99.90
12655;DHT22;6392;44.644;11.448;2024-01-15T02:23:08;2.70;99.90
12655;DHT22;6392;44.644;11.448;2024-01-15T02:25:38;2.70;99.90
12655;DHT22;6392;44.644;11.448;2024-01-15T02:28:06;2.70;99.90
12655;DHT22;6392;44.644;11.448;2024-01-15T02:30:35;2.70;99.90
12655;DHT22;6392;44.644;11.448;2024-01-15T02:33:04;2.70;99.90
12655;DHT22;6392;44.644;11.448;2024-01-15T02:35:31;2.70;99.90
12655;DHT22;6392;44.644;11.448;2024-01-15T02:37:59;2.70;99.90
12655;DHT22;6392;44.644;11.448;2024-01-15T02:40:27;2.70;99.90
12655;DHT22;6392;44.644;11.448;2024-01-15T02:42:54;2.70;99.90
12655;DHT22;6392;44.644;11.448;2024-01-15T02:45:21;2.70;99.90
12655;DHT22;6392;44.644;11.448;2024-01-15T02:47:49;2.60;99.90
12655;DHT22;6392;44.644;11.448;2024-01-15T02:50:16;2.70;99.90
12655;DHT22;6392;44.644;11.448;2024-01-15T02:52:43;2.60;99.90
12655;DHT22;6392;44.644;11.448;2024-01-15T02:55:10;2.60;99.90
12655;DHT22;6392;44.644;11.448;2024-01-15T02:57:39;2.60;99.90
12655;DHT22;6392;44.644;11.448;2024-01-15T03:00:06;2.60;99.90
12655;DHT22;6392;44.644;11.448;2024-01-15T03:02:36;2.60;99.90
12655;DHT22;6392;44.644;11.448;2024-01-15T03:05:05;2.70;99.90
12655;DHT22;6392;44.644;11.448;2024-01-15T03:07:32;2.70;99.90
12655;DHT22;6392;44.644;11.448;2024-01-15T03:09:59;2.70;99.90
12655;DHT22;6392;44.644;11.448;2024-01-15T03:12:26;2.70;99.90
12655;DHT22;6392;44.644;11.448;2024-01-15T03:14:55;2.70;99.90
12655;DHT22;6392;44.644;11.448;2024-01-15T03:17:22;2.70;99.90
12655;DHT22;6392;44.644;11.448;2024-01-15T03:19:49;2.70;99.90
12655;DHT22;6392;44.644;11.448;2024-01-15T03:22:16;2.80;99.90
12655;DHT22;6392;44.644;11.448;2024-01-15T03:24:43;2.80;99.90
12655;DHT22;6392;44.644;11.448;2024-01-15T03:27:10;2.80;99.90
12655;DHT22;6392;44.644;11.448;2024-01-15T03:29:37;2.90;99.90
12655;DHT22;6392;44.644;11.448;2024-01-15T03:32:06;2.90;99.90
12655;DHT22;6392;44.644;11.448;2024-01-15T03:34:33;2.90;99.90
12655;DHT22;6392;44.644;11.448;2024-01-15T03:37:00;2.90;99.90
12655;DHT22;6392;44.644;11.448;2024-01-15T03:39:27;2.90;99.90
12655;DHT22;6392;44.644;11.448;2024-01-15T03:41:54;2.90;99.90
12655;DHT22;6392;44.644;11.448;2024-01-15T03:44:22;2.90;99.90
12655;DHT22;6392;44.644;11.448;2024-01-15T03:46:49;2.90;99.90
12655;DHT22;6392;44.644;11.448;2024-01-15T03:49:17;2.90;99.90
12655;DHT22;6392;44.644;11.448;2024-01-15T03:51:45;2.90;99.90
12655;DHT22;6392;44.644;11.448;2024-01-15T03:54:12;3.00;99.90
12655;DHT22;6392;44.644;11.448;2024-01-15T03:56:39;3.00;99.90
12655;DHT22;6392;44.644;11.448;2024-01-15T03:59:06;3.00;99.90
12655;DHT22;6392;44.644;11.448;2024-01-15T04:01:33;3.00;99.90
12655;DHT22;6392;44.644;11.448;2024-01-15T04:04:00;3.00;99.90
12655;DHT22;6392;44.644;11.448;2024-01-15T04:06:28;3.00;99.90
12655;DHT22;6392;44.644;11.448;2024-01-15T04:08:55;3.00;99.90
12655;DHT22;6392;44.644;11.448;2024-01-15T04:11:22;3.00;99.90
12655;DHT22;6392;44.644;11.448;2024-01-15T04:13:50;3.00;99.90
12655;DHT22;6392;44.644;11.448;2024-01-15T04:16:17;3.00;99.90
12655;DHT22;6392;44.644;11.448;2024-01-15T04:18:44;3.10;99.90
12655;DHT22;6392;44.644;11.448;2024-01-15T04:21:11;3.10;99.90
12655;DHT22;6392;44.644;11.448;2024-01-15T04:23:40;3.10;99.90
12655;DHT22;6392;44.644;11.448;2024-01-15T04:26:07;3.10;99.90
12655;DHT22;6392;44.644;11.448;2024-01-15T04:28:34;3.20;99.90
12655;DHT22;6392;44.644;11.448;2024-01-15T04:31:01;3.20;99.90
12655;DHT22;6392;44.644;11.448;2024-01-15T04:33:28;3.20;99.90
12655;DHT22;6392;44.644;11.448;2024-01-15T04:35:55;3.20;99.90
12655;DHT22;6392;44.644;11.448;2024-01-15T04:38:22;3.20;99.90
12655;DHT22;6392;44.644;11.448;2024-01-15T04:40:51;3.20;99.90
12655;DHT22;6392;44.644;11.448;2024-01-15T04:43:18;3.20;99.90
12655;DHT22;6392;44.644;11.448;2024-01-15T04:45:45;3.20;99.90
12655;DHT22;6392;44.644;11.448;2024-01-15T04:48:12;3.20;99.90
12655;DHT22;6392;44.644;11.448;2024-01-15T04:50:39;3.20;99.90
12655;DHT22;6392;44.644;11.448;2024-01-15T04:53:06;3.20;99.90
12655;DHT22;6392;44.644;11.448;2024-01-15T04:55:33;3.10;99.90
12655;DHT22;6392;44.644;11.448;2024-01-15T04:58:02;3.20;99.90
12655;DHT22;6392;44.644;11.448;2024-01-15T05:00:29;3.20;99.90
12655;DHT22;6392;44.644;11.448;2024-01-15T05:02:56;3.20;99.90
12655;DHT22;6392;44.644;11.448;2024-01-15T05:05:23;3.20;99.90
12655;DHT22;6392;44.644;11.448;2024-01-15T05:07:50;3.20;99.90
12655;DHT22;6392;44.644;11.448;2024-01-15T05:10:17;3.20;99.90
12655;DHT22;6392;44.644;11.448;2024-01-15T05:12:44;3.20;99.90
12655;DHT22;6392;44.644;11.448;2024-01-15T05:15:12;3.20;99.90
12655;DHT22;6392;44.644;11.448;2024-01-15T05:17:39;3.20;99.90
12655;DHT22;6392;44.644;11.448;2024-01-15T05:20:07;3.30;99.90
12655;DHT22;6392;44.644;11.448;2024-01-15T05:22:34;3.30;99.90
12655;DHT22;6392;44.644;11.448;2024-01-15T05:25:02;3.40;99.90
12655;DHT22;6392;44.644;11.448;2024-01-15T05:27:29;3.40;99.90
12655;DHT22;6392;44.644;11.448;2024-01-15T05:29:56;3.40;99.90
12655;DHT22;6392;44.644;11.448;2024-01-15T05:32:24;3.40;99.90
12655;DHT22;6392;44.644;11.448;2024-01-15T05:34:51;3.40;99.90
12655;DHT22;6392;44.644;11.448;2024-01-15T05:37:18;3.40;99.90
12655;DHT22;6392;44.644;11.448;2024-01-15T05:39:45;3.40;99.90
12655;DHT22;6392;44.644;11.448;2024-01-15T05:42:13;3.40;99.90
12655;DHT22;6392;44.644;11.448;2024-01-15T05:44:40;3.40;99.90
12655;DHT22;6392;44.644;11.448;2024-01-15T05:47:08;3.40;99.90
12655;DHT22;6392;44.644;11.448;2024-01-15T05:49:37;3.40;99.90
12655;DHT22;6392;44.644;11.448;2024-01-15T05:52:04;3.40;99.90
12655;DHT22;6392;44.644;11.448;2024-01-15T05:54:31;3.40;99.90
12655;DHT22;6392;44.644;11.448;2024-01-15T05:56:58;3.40;99.90
12655;DHT22;6392;44.644;11.448;2024-01-15T05:59:25;3.50;99.90
12655;DHT22;6392;44.644;11.448;2024-01-15T06:01:54;3.50;99.90
12655;DHT22;6392;44.644;11.448;2024-01-15T06:04:21;3.50;99.90
12655;DHT22;6392;44.644;11.448;2024-01-15T06:06:49;3.50;99.90
12655;DHT22;6392;44.644;11.448;2024-01-15T06:09:16;3.50;99.90
12655;DHT22;6392;44.644;11.448;2024-01-15T06:11:43;3.50;99.90
12655;DHT22;6392;44.644;11.448;2024-01-15T06:14:10;3.50;99.90
12655;DHT22;6392;44.644;11.448;2024-01-15T06:16:37;3.50;99.90
12655;DHT22;6392;44.644;11.448;2024-01-15T06:19:04;3.50;99.90
12655;DHT22;6392;44.644;11.448;2024-01-15T06:21:31;3.50;99.90
12655;DHT22;6392;44.644;11.448;2024-01-15T06:24:00;3.50;99.90
12655;DHT22;6392;44.644;11.448;2024-01-15T06:26:27;3.50;99.90
12655;DHT22;6392;44.644;11.448;2024-01-15T06:28:54;3.50;99.90
12655;DHT22;6392;44.644;11.448;2024-01-15T06:31:21;3.60;99.90
12655;DHT22;6392;44.644;11.448;2024-01-15T06:33:48;3.60;99.90
12655;DHT22;6392;44.644;11.448;2024-01-15T06:36:16;3.60;99.90
12655;DHT22;6392;44.644;11.448;2024-01-15T06:38:43;3.60;99.90
12655;DHT22;6392;44.644;11.448;2024-01-15T06:41:12;3.60;99.90
12655;DHT22;6392;44.644;11.448;2024-01-15T06:43:39;3.60;99.90
12655;DHT22;6392;44.644;11.448;2024-01-15T06:46:06;3.60;99.90
12655;DHT22;6392;44.644;11.448;2024-01-15T06:48:33;3.60;99.90
12655;DHT22;6392;44.644;11.448;2024-01-15T06:51:00;3.70;99.90
12655;DHT22;6392;44.644;11.448;2024-01-15T06:53:27;3.70;99.90
12655;DHT22;6392;44.644;11.448;2024-01-15T06:55:54;3.70;99.90
12655;DHT22;6392;44.644;11.448;2024-01-15T06:58:23;3.70;99.90
12655;DHT22;6392;44.644;11.448;2024-01-15T07:00:50;3.80;99.90
12655;DHT22;6392;44.644;11.448;2024-01-15T07:03:17;3.70;99.90
12655;DHT22;6392;44.644;11.448;2024-01-15T07:05:44;3.80;99.90
12655;DHT22;6392;44.644;11.448;2024-01-15T07:08:11;3.70;99.90
12655;DHT22;6392;44.644;11.448;2024-01-15T07:10:38;3.70;99.90
12655;DHT22;6392;44.644;11.448;2024-01-15T07:13:05;3.80;99.90
12655;DHT22;6392;44.644;11.448;2024-01-15T07:15:34;3.80;99.90
12655;DHT22;6392;44.644;11.448;2024-01-15T07:18:01;3.80;99.90
12655;DHT22;6392;44.644;11.448;2024-01-15T07:20:28;3.80;99.90
12655;DHT22;6392;44.644;11.448;2024-01-15T07:22:55;3.80;99.90
12655;DHT22;6392;44.644;11.448;2024-01-15T07:25:22;3.80;99.90
12655;DHT22;6392;44.644;11.448;2024-01-15T07:27:51;3.70;99.90
12655;DHT22;6392;44.644;11.448;2024-01-15T07:30:19;3.80;99.90
12655;DHT22;6392;44.644;11.448;2024-01-15T07:32:49;3.70;99.90
12655;DHT22;6392;44.644;11.448;2024-01-15T07:35:17;3.70;99.90
12655;DHT22;6392;44.644;11.448;2024-01-15T07:37:44;3.60;99.90
12655;DHT22;6392;44.644;11.448;2024-01-15T07:40:11;3.60;99.90
12655;DHT22;6392;44.644;11.448;2024-01-15T07:42:39;3.60;99.90
12655;DHT22;6392;44.644;11.448;2024-01-15T07:45:08;3.60;99.90
12655;DHT22;6392;44.644;11.448;2024-01-15T07:47:35;3.60;99.90
12655;DHT22;6392;44.644;11.448;2024-01-15T07:50:04;3.70;99.90
12655;DHT22;6392;44.644;11.448;2024-01-15T07:52:31;3.70;99.90
12655;DHT22;6392;44.644;11.448;2024-01-15T07:54:58;3.60;99.90
12655;DHT22;6392;44.644;11.448;2024-01-15T07:57:26;3.60;99.90
12655;DHT22;6392;44.644;11.448;2024-01-15T07:59:53;3.60;99.90
12655;DHT22;6392;44.644;11.448;2024-01-15T08:02:20;3.60;99.90
12655;DHT22;6392;44.644;11.448;2024-01-15T08:04:48;3.60;99.90
12655;DHT22;6392;44.644;11.448;2024-01-15T08:07:16;3.60;99.90
12655;DHT22;6392;44.644;11.448;2024-01-15T08:09:43;3.70;99.90
12655;DHT22;6392;44.644;11.448;2024-01-15T08:12:12;3.70;99.90
12655;DHT22;6392;44.644;11.448;2024-01-15T08:14:39;3.70;99.90
12655;DHT22;6392;44.644;11.448;2024-01-15T08:17:06;3.60;99.90
12655;DHT22;6392;44.644;11.448;2024-01-15T08:19:33;3.70;99.90
12655;DHT22;6392;44.644;11.448;2024-01-15T08:22:00;3.80;99.90
12655;DHT22;6392;44.644;11.448;2024-01-15T08:24:28;3.80;99.90
12655;DHT22;6392;44.644;11.448;2024-01-15T08:26:57;3.80;99.90
12655;DHT22;6392;44.644;11.448;2024-01-15T08:29:24;3.90;99.90
12655;DHT22;6392;44.644;11.448;2024-01-15T08:31:51;3.90;99.90
12655;DHT22;6392;44.644;11.448;2024-01-15T08:34:18;4.00;99.90
12655;DHT22;6392;44.644;11.448;2024-01-15T08:36:45;4.00;99.90
12655;DHT22;6392;44.644;11.448;2024-01-15T08:39:12;4.10;99.90
12655;DHT22;6392;44.644;11.448;2024-01-15T08:41:40;4.20;99.90
12655;DHT22;6392;44.644;11.448;2024-01-15T08:44:08;4.30;99.90
12655;DHT22;6392;44.644;11.448;2024-01-15T08:46:35;4.40;99.90
12655;DHT22;6392;44.644;11.448;2024-01-15T08:49:02;4.40;99.90
12655;DHT22;6392;44.644;11.448;2024-01-15T08:51:29;4.50;99.90
12655;DHT22;6392;44.644;11.448;2024-01-15T08:53:57;4.60;99.90
12655;DHT22;6392;44.644;11.448;2024-01-15T08:56:24;4.60;99.90
12655;DHT22;6392;44.644;11.448;2024-01-15T08:58:54;4.60;99.90
12655;DHT22;6392;44.644;11.448;2024-01-15T09:01:21;4.70;99.90
12655;DHT22;6392;44.644;11.448;2024-01-15T09:03:48;4.70;99.90
12655;DHT22;6392;44.644;11.448;2024-01-15T09:06:16;4.70;99.90
12655;DHT22;6392;44.644;11.448;2024-01-15T09:08:43;4.70;99.90
12655;DHT22;6392;44.644;11.448;2024-01-15T09:11:10;4.70;99.90
12655;DHT22;6392;44.644;11.448;2024-01-15T09:13:37;4.70;99.90
12655;DHT22;6392;44.644;11.448;2024-01-15T09:16:07;4.60;99.90
12655;DHT22;6392;44.644;11.448;2024-01-15T09:18:35;4.60;99.90
12655;DHT22;6392;44.644;11.448;2024-01-15T09:21:03;4.60;99.90
12655;DHT22;6392;44.644;11.448;2024-01-15T09:23:30;4.60;99.90
12655;DHT22;6392;44.644;11.448;2024-01-15T09:25:57;4.60;99.90
12655;DHT22;6392;44.644;11.448;2024-01-15T09:28:24;4.70;99.90
12655;DHT22;6392;44.644;11.448;2024-01-15T09:30:52;4.70;99.90
12655;DHT22;6392;44.644;11.448;2024-01-15T09:33:20;4.80;99.90
12655;DHT22;6392;44.644;11.448;2024-01-15T09:35:47;4.80;99.90
12655;DHT22;6392;44.644;11.448;2024-01-15T09:38:14;4.80;99.90
12655;DHT22;6392;44.644;11.448;2024-01-15T09:40:43;4.80;99.90
12655;DHT22;6392;44.644;11.448;2024-01-15T09:43:12;4.90;99.90
12655;DHT22;6392;44.644;11.448;2024-01-15T09:45:41;5.00;99.90
12655;DHT22;6392;44.644;11.448;2024-01-15T09:48:09;5.00;99.90
12655;DHT22;6392;44.644;11.448;2024-01-15T09:50:38;5.10;99.90
12655;DHT22;6392;44.644;11.448;2024-01-15T09:53:05;5.10;99.90
12655;DHT22;6392;44.644;11.448;2024-01-15T09:55:32;5.20;99.90
12655;DHT22;6392;44.644;11.448;2024-01-15T09:58:00;5.20;99.90
12655;DHT22;6392;44.644;11.448;2024-01-15T10:00:29;5.30;99.90
12655;DHT22;6392;44.644;11.448;2024-01-15T10:02:57;5.30;99.90
12655;DHT22;6392;44.644;11.448;2024-01-15T10:05:26;5.30;99.90
12655;DHT22;6392;44.644;11.448;2024-01-15T10:07:56;5.30;99.90
12655;DHT22;6392;44.644;11.448;2024-01-15T10:10:23;5.40;99.90
12655;DHT22;6392;44.644;11.448;2024-01-15T10:12:50;5.40;99.90
12655;DHT22;6392;44.644;11.448;2024-01-15T10:15:17;5.50;99.90
12655;DHT22;6392;44.644;11.448;2024-01-15T10:17:45;5.60;99.90
12655;DHT22;6392;44.644;11.448;2024-01-15T10:20:15;5.70;99.90
12655;DHT22;6392;44.644;11.448;2024-01-15T10:22:42;5.70;99.90
12655;DHT22;6392;44.644;11.448;2024-01-15T10:25:14;5.70;99.90
12655;DHT22;6392;44.644;11.448;2024-01-15T10:27:42;5.80;99.90
12655;DHT22;6392;44.644;11.448;2024-01-15T10:30:10;5.80;99.90
12655;DHT22;6392;44.644;11.448;2024-01-15T10:32:37;5.80;99.90
12655;DHT22;6392;44.644;11.448;2024-01-15T10:35:05;5.80;99.90
12655;DHT22;6392;44.644;11.448;2024-01-15T10:37:34;5.80;99.90
12655;DHT22;6392;44.644;11.448;2024-01-15T10:40:02;5.80;99.90
12655;DHT22;6392;44.644;11.448;2024-01-15T10:42:32;5.80;99.90
12655;DHT22;6392;44.644;11.448;2024-01-15T10:44:59;5.90;99.90
12655;DHT22;6392;44.644;11.448;2024-01-15T10:47:26;6.00;99.90
12655;DHT22;6392;44.644;11.448;2024-01-15T10:49:54;6.10;99.90
12655;DHT22;6392;44.644;11.448;2024-01-15T10:52:21;6.10;99.90
12655;DHT22;6392;44.644;11.448;2024-01-15T10:54:49;6.20;99.90
12655;DHT22;6392;44.644;11.448;2024-01-15T10:57:17;6.30;99.90
12655;DHT22;6392;44.644;11.448;2024-01-15T10:59:45;6.30;99.90
12655;DHT22;6392;44.644;11.448;2024-01-15T11:02:13;6.30;99.90
12655;DHT22;6392;44.644;11.448;2024-01-15T11:04:41;6.30;99.90
12655;DHT22;6392;44.644;11.448;2024-01-15T11:07:08;6.40;99.90
12655;DHT22;6392;44.644;11.448;2024-01-15T11:09:37;6.30;99.90
12655;DHT22;6392;44.644;11.448;2024-01-15T11:12:08;6.40;99.90
12655;DHT22;6392;44.644;11.448;2024-01-15T11:14:39;6.40;99.90
12655;DHT22;6392;44.644;11.448;2024-01-15T11:17:09;6.40;99.90
12655;DHT22;6392;44.644;11.448;2024-01-15T11:19:38;6.40;99.90
12655;DHT22;6392;44.644;11.448;2024-01-15T11:22:08;6.50;99.90
12655;DHT22;6392;44.644;11.448;2024-01-15T11:24:39;6.60;99.90
12655;DHT22;6392;44.644;11.448;2024-01-15T11:27:07;6.70;99.90
12655;DHT22;6392;44.644;11.448;2024-01-15T11:29:35;6.70;99.90
12655;DHT22;6392;44.644;11.448;2024-01-15T11:32:04;6.80;99.90
12655;DHT22;6392;44.644;11.448;2024-01-15T11:34:53;6.80;99.90
12655;DHT22;6392;44.644;11.448;2024-01-15T11:37:21;6.90;99.90
12655;DHT22;6392;44.644;11.448;2024-01-15T11:39:54;6.90;99.90
12655;DHT22;6392;44.644;11.448;2024-01-15T11:42:22;7.00;99.90
12655;DHT22;6392;44.644;11.448;2024-01-15T11:44:49;7.10;99.90
12655;DHT22;6392;44.644;11.448;2024-01-15T11:47:27;7.20;99.90
12655;DHT22;6392;44.644;11.448;2024-01-15T11:50:04;7.20;99.90
12655;DHT22;6392;44.644;11.448;2024-01-15T11:52:35;7.30;99.90
12655;DHT22;6392;44.644;11.448;2024-01-15T11:55:11;7.30;99.90
12655;DHT22;6392;44.644;11.448;2024-01-15T11:57:41;7.40;99.90
12655;DHT22;6392;44.644;11.448;2024-01-15T12:00:10;7.40;99.90
12655;DHT22;6392;44.644;11.448;2024-01-15T12:02:39;7.50;99.90
12655;DHT22;6392;44.644;11.448;2024-01-15T12:05:08;7.60;99.90
12655;DHT22;6392;44.644;11.448;2024-01-15T12:07:38;7.60;99.90
12655;DHT22;6392;44.644;11.448;2024-01-15T12:10:09;7.70;99.90
12655;DHT22;6392;44.644;11.448;2024-01-15T12:12:54;7.70;99.90
12655;DHT22;6392;44.644;11.448;2024-01-15T12:15:24;7.70;99.90
12655;DHT22;6392;44.644;11.448;2024-01-15T12:17:51;7.70;99.90
12655;DHT22;6392;44.644;11.448;2024-01-15T12:20:20;7.70;99.90
12655;DHT22;6392;44.644;11.448;2024-01-15T12:22:47;7.80;99.90
12655;DHT22;6392;44.644;11.448;2024-01-15T12:25:14;7.80;99.90
12655;DHT22;6392;44.644;11.448;2024-01-15T12:27:41;7.80;99.90
12655;DHT22;6392;44.644;11.448;2024-01-15T12:30:11;7.80;99.90
12655;DHT22;6392;44.644;11.448;2024-01-15T12:32:40;7.90;99.90
12655;DHT22;6392;44.644;11.448;2024-01-15T12:35:07;7.90;99.90
12655;DHT22;6392;44.644;11.448;2024-01-15T12:37:37;7.90;99.90
12655;DHT22;6392;44.644;11.448;2024-01-15T12:40:05;8.00;99.90
12655;DHT22;6392;44.644;11.448;2024-01-15T12:42:32;8.00;99.90
12655;DHT22;6392;44.644;11.448;2024-01-15T12:45:00;8.10;99.90
12655;DHT22;6392;44.644;11.448;2024-01-15T12:47:27;8.10;99.90
12655;DHT22;6392;44.644;11.448;2024-01-15T12:49:54;8.20;99.90
12655;DHT22;6392;44.644;11.448;2024-01-15T12:52:21;8.30;99.90
12655;DHT22;6392;44.644;11.448;2024-01-15T12:54:51;8.40;99.90
12655;DHT22;6392;44.644;11.448;2024-01-15T12:57:18;8.50;99.90
12655;DHT22;6392;44.644;11.448;2024-01-15T12:59:45;8.60;99.90
12655;DHT22;6392;44.644;11.448;2024-01-15T13:02:13;8.80;99.90
12655;DHT22;6392;44.644;11.448;2024-01-15T13:04:40;8.80;99.90
12655;DHT22;6392;44.644;11.448;2024-01-15T13:07:07;8.90;99.90
12655;DHT22;6392;44.644;11.448;2024-01-15T13:09:35;9.00;99.90
12655;DHT22;6392;44.644;11.448;2024-01-15T13:12:04;9.10;99.90
12655;DHT22;6392;44.644;11.448;2024-01-15T13:14:31;9.20;99.90
12655;DHT22;6392;44.644;11.448;2024-01-15T13:16:58;9.20;99.90
12655;DHT22;6392;44.644;11.448;2024-01-15T13:19:25;9.40;99.90
12655;DHT22;6392;44.644;11.448;2024-01-15T13:21:53;9.50;99.90
12655;DHT22;6392;44.644;11.448;2024-01-15T13:24:21;9.60;99.90
12655;DHT22;6392;44.644;11.448;2024-01-15T13:26:48;9.70;99.90
12655;DHT22;6392;44.644;11.448;2024-01-15T13:29:16;9.70;99.90
12655;DHT22;6392;44.644;11.448;2024-01-15T13:31:44;9.80;99.90
12655;DHT22;6392;44.644;11.448;2024-01-15T13:34:12;9.80;99.90
12655;DHT22;6392;44.644;11.448;2024-01-15T13:36:40;9.90;99.90
12655;DHT22;6392;44.644;11.448;2024-01-15T13:39:07;9.90;99.90
12655;DHT22;6392;44.644;11.448;2024-01-15T13:41:35;10.00;99.90
12655;DHT22;6392;44.644;11.448;2024-01-15T13:44:02;10.00;99.90
12655;DHT22;6392;44.644;11.448;2024-01-15T13:46:30;10.10;99.90
12655;DHT22;6392;44.644;11.448;2024-01-15T13:48:59;10.10;99.90
12655;DHT22;6392;44.644;11.448;2024-01-15T13:51:27;10.30;99.90
12655;DHT22;6392;44.644;11.448;2024-01-15T13:53:55;10.30;99.90
12655;DHT22;6392;44.644;11.448;2024-01-15T13:56:22;10.50;99.90
12655;DHT22;6392;44.644;11.448;2024-01-15T13:58:49;10.50;99.90
12655;DHT22;6392;44.644;11.448;2024-01-15T14:01:17;10.50;99.90
12655;DHT22;6392;44.644;11.448;2024-01-15T14:03:46;10.60;99.90
12655;DHT22;6392;44.644;11.448;2024-01-15T14:06:13;10.60;99.90
12655;DHT22;6392;44.644;11.448;2024-01-15T14:08:40;10.70;99.90
12655;DHT22;6392;44.644;11.448;2024-01-15T14:11:07;10.70;99.90
12655;DHT22;6392;44.644;11.448;2024-01-15T14:13:35;10.80;99.90
12655;DHT22;6392;44.644;11.448;2024-01-15T14:16:03;10.80;99.90
12655;DHT22;6392;44.644;11.448;2024-01-15T14:18:31;10.80;99.90
12655;DHT22;6392;44.644;11.448;2024-01-15T14:20:59;10.90;99.90
12655;DHT22;6392;44.644;11.448;2024-01-15T14:23:26;10.90;99.90
12655;DHT22;6392;44.644;11.448;2024-01-15T14:25:53;11.00;99.90
12655;DHT22;6392;44.644;11.448;2024-01-15T14:28:20;11.00;99.90
12655;DHT22;6392;44.644;11.448;2024-01-15T14:30:48;11.10;99.90
12655;DHT22;6392;44.644;11.448;2024-01-15T14:33:17;11.20;99.90
12655;DHT22;6392;44.644;11.448;2024-01-15T14:35:44;11.20;99.90
12655;DHT22;6392;44.644;11.448;2024-01-15T14:38:12;11.20;99.90
12655;DHT22;6392;44.644;11.448;2024-01-15T14:40:39;11.10;99.90
12655;DHT22;6392;44.644;11.448;2024-01-15T14:43:06;11.10;99.90
12655;DHT22;6392;44.644;11.448;2024-01-15T14:45:34;11.00;99.90
12655;DHT22;6392;44.644;11.448;2024-01-15T14:48:01;11.00;99.90
12655;DHT22;6392;44.644;11.448;2024-01-15T14:50:28;10.90;99.90
12655;DHT22;6392;44.644;11.448;2024-01-15T14:52:55;10.90;99.90
12655;DHT22;6392;44.644;11.448;2024-01-15T14:55:23;10.90;99.90
12655;DHT22;6392;44.644;11.448;2024-01-15T14:57:52;10.80;99.90
12655;DHT22;6392;44.644;11.448;2024-01-15T15:00:20;10.80;99.90
12655;DHT22;6392;44.644;11.448;2024-01-15T15:02:48;10.60;99.90
12655;DHT22;6392;44.644;11.448;2024-01-15T15:05:15;10.40;99.90
12655;DHT22;6392;44.644;11.448;2024-01-15T15:07:42;10.30;99.90
12655;DHT22;6392;44.644;11.448;2024-01-15T15:10:10;10.10;99.90
12655;DHT22;6392;44.644;11.448;2024-01-15T15:12:39;10.20;99.90
12655;DHT22;6392;44.644;11.448;2024-01-15T15:15:07;10.20;99.90
12655;DHT22;6392;44.644;11.448;2024-01-15T15:17:36;10.10;99.90
12655;DHT22;6392;44.644;11.448;2024-01-15T15:20:04;9.90;99.90
12655;DHT22;6392;44.644;11.448;2024-01-15T15:22:32;9.80;99.90
12655;DHT22;6392;44.644;11.448;2024-01-15T15:24:59;9.60;99.90
12655;DHT22;6392;44.644;11.448;2024-01-15T15:27:26;9.50;99.90
12655;DHT22;6392;44.644;11.448;2024-01-15T15:29:55;9.40;99.90
12655;DHT22;6392;44.644;11.448;2024-01-15T15:32:22;9.30;99.90
12655;DHT22;6392;44.644;11.448;2024-01-15T15:34:50;9.20;99.90
12655;DHT22;6392;44.644;11.448;2024-01-15T15:37:17;9.20;99.90
12655;DHT22;6392;44.644;11.448;2024-01-15T15:39:44;9.10;99.90
12655;DHT22;6392;44.644;11.448;2024-01-15T15:42:11;9.10;99.90
12655;DHT22;6392;44.644;11.448;2024-01-15T15:44:39;9.10;99.90
12655;DHT22;6392;44.644;11.448;2024-01-15T15:47:13;9.00;99.90